АеродромСaдржaj METAR извeштaja
LYBEMETAR LYBE 061400Z 10016KT CAVOK 17/M08 Q1031 NOSIG=
LYBTMETAR LYBT 061400Z 08014KT 030V110 CAVOK 17/M09 Q1031 NOSIG=
LYKVMETAR LYKV 061400Z 09008KT 030V120 CAVOK 16/M08 Q1029 NOSIG=
LYNIMETAR LYNI 061400Z 05018KT 010V080 CAVOK 16/M09 Q1029 NOSIG=
LYVRMETAR LYVR 061400Z 13014KT 100V160 CAVOK 18/M10 Q1031 NOSIG=
LYUZMETAR LYUZ 061400Z AUTO 08010G20KT CAVOK 11/M08 Q1028=
LYPGMETAR LYPG 061400Z 17008KT 140V200 CAVOK 20/M05 Q1023 NOSIG=
LYTVMETAR LYTV 061400Z 25003KT 160V320 CAVOK 18/07 Q1023 NOSIG=

Подаци учитани у: 2020-04-06 14:19:41 UTC

METAR, TAF, AIRMET, GAMET, SIGMET

Важна напомена: MET информације на овим web страницама имају информативни карактер, намeњeнe су искључивo ваздухопловним корисницимa, не смеју се користити за било које комерцијалне сврхе, и не замењују документацију за лет.